Time;durP1;ratioP1;P1;durP2;ratioP2;P2;SDS_P1;SDS_P2;PMS_P1;PMS_P2;Temp;Humidity;BMP_temperature;BMP_pressure;BME280_temperature;BME280_humidity;BME280_pressure;Samples;Min_cycle;Max_cycle;Signal;HPM_P1;HPM_P2
2022/11/17 05:31:47;;;;;;;;;0.00;0.00;;;;;;;;5003784;24;45963;-52
2022/11/17 05:34:13;;;;;;;;;0.00;0.00;;;;;;;;4714094;30;45622;-52
2022/11/17 05:36:39;;;;;;;;;0.00;0.00;;;;;;;;4713764;30;45329;-51
2022/11/17 05:39:04;;;;;;;;;0.00;0.00;;;;;;;;4709849;30;45308;-51
2022/11/17 05:41:30;;;;;;;;;1.00;0.00;;;;;;;;4709939;30;46054;-53
2022/11/17 05:43:55;;;;;;;;;0.00;0.00;;;;;;;;4711099;30;45405;-52
2022/11/17 05:46:21;;;;;;;;;0.67;0.00;;;;;;;;4713527;30;45363;-51
2022/11/17 05:48:51;;;;;;;;;0.67;0.00;;;;;;;;4706509;30;45500;-54
2022/11/17 05:51:17;;;;;;;;;0.00;0.00;;;;;;;;4715011;30;46139;-53
2022/11/17 05:53:42;;;;;;;;;0.00;0.00;;;;;;;;4711490;30;45483;-52
2022/11/17 05:56:11;;;;;;;;;0.00;0.00;;;;;;;;4716677;30;45684;-55
2022/11/17 05:58:37;;;;;;;;;0.00;0.00;;;;;;;;4712222;30;45374;-53
2022/11/17 06:01:04;;;;;;;;;1.00;0.00;;;;;;;;4716976;30;45343;-54
2022/11/17 06:03:33;;;;;;;;;0.67;0.00;;;;;;;;4715140;30;45454;-53
2022/11/17 06:05:58;;;;;;;;;0.67;0.00;;;;;;;;4710103;30;45459;-53
2022/11/17 06:08:24;;;;;;;;;0.33;0.00;;;;;;;;4717898;30;45361;-54
2022/11/17 06:10:49;;;;;;;;;0.00;0.00;;;;;;;;4717192;30;45968;-57
2022/11/17 06:13:14;;;;;;;;;0.00;0.00;;;;;;;;4689305;30;45571;-55
2022/11/17 06:15:39;;;;;;;;;0.33;0.33;;;;;;;;4714236;30;45479;-54
2022/11/17 06:18:07;;;;;;;;;0.00;0.00;;;;;;;;4711138;30;45671;-54
2022/11/17 06:20:34;;;;;;;;;1.33;0.33;;;;;;;;4718482;30;45389;-54
2022/11/17 06:23:01;;;;;;;;;1.00;0.00;;;;;;;;4712769;30;45330;-55
2022/11/17 06:25:27;;;;;;;;;0.00;0.00;;;;;;;;4714061;30;45403;-53
2022/11/17 06:27:52;;;;;;;;;0.67;0.00;;;;;;;;4716448;30;45486;-54
2022/11/17 06:30:18;;;;;;;;;3.00;0.00;;;;;;;;4711589;30;46194;-54
2022/11/17 06:32:44;;;;;;;;;0.33;0.33;;;;;;;;4707996;30;45292;-53
2022/11/17 06:35:11;;;;;;;;;0.00;0.00;;;;;;;;4717872;30;45351;-54
2022/11/17 06:37:37;;;;;;;;;0.67;0.00;;;;;;;;4711136;30;45293;-51
2022/11/17 06:40:02;;;;;;;;;1.33;0.67;;;;;;;;4717563;30;45507;-53
2022/11/17 06:45:11;;;;;;;;;1.33;0.00;;;;;;;;4713953;30;45370;-56
2022/11/17 06:47:36;;;;;;;;;1.00;1.00;;;;;;;;4708408;30;45621;-53
2022/11/17 06:50:02;;;;;;;;;0.00;0.00;;;;;;;;4705317;30;45495;-57
2022/11/17 06:52:27;;;;;;;;;0.00;0.00;;;;;;;;4710130;30;45775;-56
2022/11/17 06:54:52;;;;;;;;;0.00;0.00;;;;;;;;4716724;30;45532;-56
2022/11/17 06:57:17;;;;;;;;;0.00;0.00;;;;;;;;4708647;30;45332;-54
2022/11/17 06:59:43;;;;;;;;;3.00;1.00;;;;;;;;4711785;30;45530;-56
2022/11/17 07:02:08;;;;;;;;;0.00;0.00;;;;;;;;4712235;30;45343;-55
2022/11/17 07:04:33;;;;;;;;;1.33;0.00;;;;;;;;4720715;30;45281;-56
2022/11/17 07:06:58;;;;;;;;;0.00;0.00;;;;;;;;4716725;30;45639;-54
2022/11/17 07:09:24;;;;;;;;;0.00;0.00;;;;;;;;4719082;30;45637;-53
2022/11/17 07:11:50;;;;;;;;;0.00;0.00;;;;;;;;4719417;30;45280;-54
2022/11/17 07:14:15;;;;;;;;;0.00;0.00;;;;;;;;4719395;30;45483;-55
2022/11/17 07:16:40;;;;;;;;;1.67;0.00;;;;;;;;4718745;30;47196;-56
2022/11/17 07:19:07;;;;;;;;;0.00;0.00;;;;;;;;4709494;30;45941;-56
2022/11/17 07:21:32;;;;;;;;;0.00;0.00;;;;;;;;4707116;30;45379;-55
2022/11/17 07:23:57;;;;;;;;;1.00;1.00;;;;;;;;4717513;30;45286;-54
2022/11/17 07:26:22;;;;;;;;;0.00;0.00;;;;;;;;4710556;30;45407;-56
2022/11/17 07:28:47;;;;;;;;;12.00;1.00;;;;;;;;4720025;30;46016;-54
2022/11/17 07:31:13;;;;;;;;;2.00;0.33;;;;;;;;4716022;30;45414;-55
2022/11/17 07:33:38;;;;;;;;;1.00;1.00;;;;;;;;4715892;30;45655;-54
2022/11/17 07:36:05;;;;;;;;;1.67;1.00;;;;;;;;4714719;30;45569;-56
2022/11/17 07:38:33;;;;;;;;;1.00;1.00;;;;;;;;4711237;30;46146;-56
2022/11/17 07:40:59;;;;;;;;;1.67;1.00;;;;;;;;4718461;30;45363;-55
2022/11/17 07:43:24;;;;;;;;;1.00;1.00;;;;;;;;4720290;30;45533;-55
2022/11/17 07:45:49;;;;;;;;;1.33;1.33;;;;;;;;4715820;30;45755;-56
2022/11/17 07:48:15;;;;;;;;;2.25;0.00;;;;;;;;4713967;30;45439;-56
2022/11/17 07:50:40;;;;;;;;;1.00;1.00;;;;;;;;4717370;30;45486;-55
2022/11/17 07:53:06;;;;;;;;;2.00;1.00;;;;;;;;4706885;30;45393;-56
2022/11/17 07:55:31;;;;;;;;;1.00;1.00;;;;;;;;4716191;30;45477;-57
2022/11/17 07:57:57;;;;;;;;;3.67;1.00;;;;;;;;4719764;30;45230;-57
2022/11/17 08:00:22;;;;;;;;;3.67;0.00;;;;;;;;4722089;30;45611;-56
2022/11/17 08:02:48;;;;;;;;;4.33;2.00;;;;;;;;4713518;30;45460;-56
2022/11/17 08:05:16;;;;;;;;;1.33;1.33;;;;;;;;4712945;30;45464;-56
2022/11/17 08:07:41;;;;;;;;;4.00;3.00;;;;;;;;4709622;30;46734;-56
2022/11/17 08:10:06;;;;;;;;;1.00;0.33;;;;;;;;4708040;30;45336;-54
2022/11/17 08:12:32;;;;;;;;;0.00;0.00;;;;;;;;4712686;30;45474;-57
2022/11/17 08:14:57;;;;;;;;;1.67;1.00;;;;;;;;4712254;30;45403;-56
2022/11/17 08:17:22;;;;;;;;;1.00;1.00;;;;;;;;4711431;30;46118;-55
2022/11/17 08:19:47;;;;;;;;;3.67;1.00;;;;;;;;4703125;30;45579;-57
2022/11/17 08:22:12;;;;;;;;;1.67;1.00;;;;;;;;4713021;30;46053;-56
2022/11/17 08:24:37;;;;;;;;;1.67;0.67;;;;;;;;4710956;30;45385;-55
2022/11/17 08:27:02;;;;;;;;;2.00;0.00;;;;;;;;4713255;30;45454;-56
2022/11/17 08:29:28;;;;;;;;;3.00;0.00;;;;;;;;4706348;30;45639;-56
2022/11/17 08:31:53;;;;;;;;;2.67;1.00;;;;;;;;4705825;30;45416;-54
2022/11/17 08:34:18;;;;;;;;;1.00;0.00;;;;;;;;4714385;30;45315;-55
2022/11/17 08:36:43;;;;;;;;;1.00;1.00;;;;;;;;4709051;30;46310;-56
2022/11/17 08:39:08;;;;;;;;;3.67;2.00;;;;;;;;4714778;30;45303;-56
2022/11/17 08:41:34;;;;;;;;;0.00;0.00;;;;;;;;4714789;30;45572;-57
2022/11/17 08:43:59;;;;;;;;;2.00;1.00;;;;;;;;4711612;30;45803;-56
2022/11/17 08:46:27;;;;;;;;;3.00;2.00;;;;;;;;4709275;30;45355;-57
2022/11/17 08:48:52;;;;;;;;;3.00;2.00;;;;;;;;4711894;30;45330;-56
2022/11/17 08:51:17;;;;;;;;;2.75;1.00;;;;;;;;4714082;30;45286;-55
2022/11/17 08:53:42;;;;;;;;;0.00;0.00;;;;;;;;4711849;30;45700;-57
2022/11/17 08:56:08;;;;;;;;;1.33;1.00;;;;;;;;4712448;30;45466;-57
2022/11/17 08:58:37;;;;;;;;;5.00;1.00;;;;;;;;4710580;30;45314;-56
2022/11/17 09:01:05;;;;;;;;;1.00;1.00;;;;;;;;4711855;30;45466;-56
2022/11/17 09:03:30;;;;;;;;;1.00;1.00;;;;;;;;4715822;30;45633;-57
2022/11/17 09:05:56;;;;;;;;;4.67;0.00;;;;;;;;4691250;30;47314;-57
2022/11/17 09:08:21;;;;;;;;;0.00;0.00;;;;;;;;4704763;30;45390;-57
2022/11/17 09:10:48;;;;;;;;;8.00;2.00;;;;;;;;4702588;30;45273;-57
2022/11/17 09:13:13;;;;;;;;;2.00;1.00;;;;;;;;4706746;30;45419;-57
2022/11/17 09:15:38;;;;;;;;;3.67;1.00;;;;;;;;4710542;30;46211;-56
2022/11/17 09:18:03;;;;;;;;;2.00;2.00;;;;;;;;4710452;30;45259;-57
2022/11/17 09:20:30;;;;;;;;;7.00;4.00;;;;;;;;4709177;30;45458;-56
2022/11/17 09:22:57;;;;;;;;;1.67;1.00;;;;;;;;4707136;30;45415;-55
2022/11/17 09:25:22;;;;;;;;;4.33;1.00;;;;;;;;4711113;30;45272;-57
2022/11/17 09:27:48;;;;;;;;;2.00;0.00;;;;;;;;4708359;30;45414;-55
2022/11/17 09:30:14;;;;;;;;;3.33;2.00;;;;;;;;4707386;30;45400;-56
2022/11/17 09:32:39;;;;;;;;;3.00;0.67;;;;;;;;4718588;30;45550;-57
2022/11/17 09:35:08;;;;;;;;;1.00;1.00;;;;;;;;4714966;30;46088;-56
2022/11/17 09:37:33;;;;;;;;;4.00;2.00;;;;;;;;4712690;30;45360;-57
2022/11/17 09:39:58;;;;;;;;;4.00;2.00;;;;;;;;4719258;30;45306;-55
2022/11/17 09:42:23;;;;;;;;;5.67;1.00;;;;;;;;4711006;30;45570;-56
2022/11/17 09:45:03;;;;;;;;;4.00;2.33;;;;;;;;4710384;30;46115;-58
2022/11/17 09:47:39;;;;;;;;;3.00;1.33;;;;;;;;4716461;30;45356;-57
2022/11/17 09:50:21;;;;;;;;;1.25;0.25;;;;;;;;4708813;30;45495;-57
2022/11/17 09:52:58;;;;;;;;;3.67;1.67;;;;;;;;4707836;30;45703;-58
2022/11/17 09:55:29;;;;;;;;;2.75;1.00;;;;;;;;4711541;30;46358;-58
2022/11/17 09:58:02;;;;;;;;;2.75;2.00;;;;;;;;4705868;30;45246;-58
2022/11/17 10:00:27;;;;;;;;;1.00;1.00;;;;;;;;4709121;30;45270;-56
2022/11/17 10:02:52;;;;;;;;;1.25;1.25;;;;;;;;4707876;30;45420;-56
2022/11/17 10:05:28;;;;;;;;;4.75;0.50;;;;;;;;4716212;30;45348;-58
2022/11/17 10:07:56;;;;;;;;;2.75;1.00;;;;;;;;4706159;30;45349;-56
2022/11/17 10:10:30;;;;;;;;;3.25;2.75;;;;;;;;4705637;30;45340;-57
2022/11/17 10:12:56;;;;;;;;;8.00;2.25;;;;;;;;4707890;30;45470;-57
2022/11/17 10:15:30;;;;;;;;;1.75;1.00;;;;;;;;4711916;30;47452;-57
2022/11/17 10:17:55;;;;;;;;;1.50;1.50;;;;;;;;4707065;30;45450;-57
2022/11/17 10:20:20;;;;;;;;;5.25;2.00;;;;;;;;4715868;30;45319;-57
2022/11/17 10:22:46;;;;;;;;;2.25;2.00;;;;;;;;4707395;30;45498;-57
2022/11/17 10:25:41;;;;;;;;;1.00;1.00;;;;;;;;4710359;30;45394;-57
2022/11/17 10:28:07;;;;;;;;;2.00;1.25;;;;;;;;4695382;30;45570;-56
2022/11/17 10:30:32;;;;;;;;;5.00;3.00;;;;;;;;4717359;30;45580;-56
2022/11/17 10:32:59;;;;;;;;;4.00;4.00;;;;;;;;4708150;30;45313;-57
2022/11/17 10:35:29;;;;;;;;;1.75;1.75;;;;;;;;4715888;30;46272;-57
2022/11/17 10:37:59;;;;;;;;;3.00;3.00;;;;;;;;4714632;30;45489;-56
2022/11/17 10:40:29;;;;;;;;;1.00;1.00;;;;;;;;4716410;30;45408;-56
2022/11/17 10:43:12;;;;;;;;;3.00;1.75;;;;;;;;4708138;30;45520;-56
2022/11/17 10:45:45;;;;;;;;;1.50;1.00;;;;;;;;4712962;30;46147;-57
2022/11/17 10:48:29;;;;;;;;;1.50;0.00;;;;;;;;4709107;30;46673;-56
2022/11/17 10:50:54;;;;;;;;;2.50;1.25;;;;;;;;4712327;30;45510;-56
2022/11/17 10:53:21;;;;;;;;;1.25;1.25;;;;;;;;4709980;30;45525;-56
2022/11/17 10:55:52;;;;;;;;;3.25;2.75;;;;;;;;4718640;30;47061;-56
2022/11/17 10:58:24;;;;;;;;;2.00;1.33;;;;;;;;4710651;30;45420;-54
2022/11/17 11:00:54;;;;;;;;;2.50;0.75;;;;;;;;4704532;30;45503;-56
2022/11/17 11:03:21;;;;;;;;;2.00;0.00;;;;;;;;4714209;30;45484;-56
2022/11/17 11:05:57;;;;;;;;;3.25;0.50;;;;;;;;4711843;30;45242;-56
2022/11/17 11:08:24;;;;;;;;;1.25;0.75;;;;;;;;4712590;30;45257;-56
2022/11/17 11:10:51;;;;;;;;;2.50;1.00;;;;;;;;4717000;30;45324;-57
2022/11/17 11:13:31;;;;;;;;;1.75;1.00;;;;;;;;4710707;30;45510;-56
2022/11/17 11:15:56;;;;;;;;;4.00;0.25;;;;;;;;4709585;30;46175;-57
2022/11/17 11:18:22;;;;;;;;;1.00;1.00;;;;;;;;4711678;30;45499;-58
2022/11/17 11:21:06;;;;;;;;;1.25;1.25;;;;;;;;4716122;30;45293;-56
2022/11/17 11:23:37;;;;;;;;;1.25;0.50;;;;;;;;4710711;30;45471;-57
2022/11/17 11:26:25;;;;;;;;;2.50;0.50;;;;;;;;4711798;30;45474;-57
2022/11/17 11:29:02;;;;;;;;;6.50;1.00;;;;;;;;4702510;30;45384;-56
2022/11/17 11:31:27;;;;;;;;;1.00;1.00;;;;;;;;4717945;30;45166;-57
2022/11/17 11:33:59;;;;;;;;;1.25;1.25;;;;;;;;4718280;30;45484;-57
2022/11/17 11:36:35;;;;;;;;;1.75;1.75;;;;;;;;4721831;30;46123;-57
2022/11/17 11:39:04;;;;;;;;;3.50;1.00;;;;;;;;4709025;30;45334;-55
2022/11/17 11:41:42;;;;;;;;;4.25;1.00;;;;;;;;4709851;30;45795;-57
2022/11/17 11:44:28;;;;;;;;;1.00;1.00;;;;;;;;4694295;30;45512;-57
2022/11/17 11:47:06;;;;;;;;;4.50;3.00;;;;;;;;4715004;30;45345;-58
2022/11/17 11:49:43;;;;;;;;;1.25;1.25;;;;;;;;4706287;30;45487;-55
2022/11/17 11:52:16;;;;;;;;;1.00;1.00;;;;;;;;4720213;30;45454;-55
2022/11/17 11:54:49;;;;;;;;;2.50;0.00;;;;;;;;4710970;30;45518;-56
2022/11/17 11:57:16;;;;;;;;;1.50;0.00;;;;;;;;4721046;30;45369;-57
2022/11/17 11:59:48;;;;;;;;;1.75;1.00;;;;;;;;4715854;30;45344;-58
2022/11/17 12:02:19;;;;;;;;;0.50;0.50;;;;;;;;4714812;30;45329;-58
2022/11/17 12:05:03;;;;;;;;;1.50;0.00;;;;;;;;4709535;30;46223;-57
2022/11/17 12:07:47;;;;;;;;;1.00;1.00;;;;;;;;4703865;30;46195;-58
2022/11/17 12:10:31;;;;;;;;;3.33;2.00;;;;;;;;4716806;30;45421;-57
2022/11/17 12:12:57;;;;;;;;;9.33;8.33;;;;;;;;4712247;30;45563;-57
2022/11/17 12:15:22;;;;;;;;;4.33;1.67;;;;;;;;4713433;30;45179;-58
2022/11/17 12:17:59;;;;;;;;;2.00;1.00;;;;;;;;4714555;30;46259;-58
2022/11/17 12:20:36;;;;;;;;;1.00;0.00;;;;;;;;4717859;30;45293;-58
2022/11/17 12:23:11;;;;;;;;;2.50;1.00;;;;;;;;4709591;30;45571;-55
2022/11/17 12:25:43;;;;;;;;;0.75;0.75;;;;;;;;4708991;30;45434;-55
2022/11/17 12:28:25;;;;;;;;;1.00;1.00;;;;;;;;4713162;30;45445;-56
2022/11/17 12:30:52;;;;;;;;;2.00;2.00;;;;;;;;4715333;30;45515;-56
2022/11/17 12:33:17;;;;;;;;;0.75;0.75;;;;;;;;4713731;30;45376;-56
2022/11/17 12:35:42;;;;;;;;;0.75;0.75;;;;;;;;4712431;30;45278;-56
2022/11/17 12:38:14;;;;;;;;;0.75;0.00;;;;;;;;4706927;30;46167;-56
2022/11/17 12:40:46;;;;;;;;;1.75;0.00;;;;;;;;4702978;30;45521;-56
2022/11/17 12:43:14;;;;;;;;;0.75;0.75;;;;;;;;4720295;30;45485;-56
2022/11/17 12:45:51;;;;;;;;;0.50;0.00;;;;;;;;4708372;30;45771;-57
2022/11/17 12:48:17;;;;;;;;;2.75;0.75;;;;;;;;4715123;30;45289;-58
2022/11/17 12:51:09;;;;;;;;;1.75;0.75;;;;;;;;4715499;30;45298;-57
2022/11/17 12:53:48;;;;;;;;;0.50;0.00;;;;;;;;4677603;30;45535;-56
2022/11/17 12:56:19;;;;;;;;;2.75;1.00;;;;;;;;4713406;30;45343;-55
2022/11/17 12:58:51;;;;;;;;;1.00;0.25;;;;;;;;4705637;30;45407;-57
2022/11/17 13:01:31;;;;;;;;;0.00;0.00;;;;;;;;4707174;30;45407;-56
2022/11/17 13:03:59;;;;;;;;;0.75;0.75;;;;;;;;4709267;30;45395;-55
2022/11/17 13:06:24;;;;;;;;;1.25;0.25;;;;;;;;4708492;30;45505;-56
2022/11/17 13:08:54;;;;;;;;;0.00;0.00;;;;;;;;4707106;30;46159;-56
2022/11/17 13:11:19;;;;;;;;;1.00;1.00;;;;;;;;4705935;30;45477;-55
2022/11/17 13:13:45;;;;;;;;;0.25;0.00;;;;;;;;4711525;30;45299;-56
2022/11/17 13:16:15;;;;;;;;;0.00;0.00;;;;;;;;4708570;30;45471;-56
2022/11/17 13:18:42;;;;;;;;;0.00;0.00;;;;;;;;4700064;30;46342;-58
2022/11/17 13:21:16;;;;;;;;;1.50;0.25;;;;;;;;4720162;30;45447;-57
2022/11/17 13:23:42;;;;;;;;;0.00;0.00;;;;;;;;4702482;30;45506;-57
2022/11/17 13:26:07;;;;;;;;;2.00;0.00;;;;;;;;4716340;30;45641;-56
2022/11/17 13:28:32;;;;;;;;;1.25;0.00;;;;;;;;4702908;30;45551;-57
2022/11/17 13:30:58;;;;;;;;;1.00;1.00;;;;;;;;4713842;30;45447;-56
2022/11/17 13:33:25;;;;;;;;;3.00;0.00;;;;;;;;4703647;30;45419;-56
2022/11/17 13:36:10;;;;;;;;;1.00;1.00;;;;;;;;4709538;30;45651;-56
2022/11/17 13:38:35;;;;;;;;;1.75;0.00;;;;;;;;4700073;30;46183;-57
2022/11/17 13:41:01;;;;;;;;;1.00;1.00;;;;;;;;4709627;30;45327;-57
2022/11/17 13:43:28;;;;;;;;;0.50;0.25;;;;;;;;4717915;30;45522;-57
2022/11/17 13:45:53;;;;;;;;;2.75;0.25;;;;;;;;4716056;30;45238;-57
2022/11/17 13:48:33;;;;;;;;;0.00;0.00;;;;;;;;4708337;30;46417;-57
2022/11/17 13:51:21;;;;;;;;;1.75;1.25;;;;;;;;4715673;30;45473;-57
2022/11/17 13:53:49;;;;;;;;;1.25;0.00;;;;;;;;4707598;30;45464;-57
2022/11/17 13:56:20;;;;;;;;;1.00;0.00;;;;;;;;4710377;30;45323;-56
2022/11/17 13:58:47;;;;;;;;;0.00;0.00;;;;;;;;4708291;30;46159;-57
2022/11/17 14:01:13;;;;;;;;;0.00;0.00;;;;;;;;4715639;30;45346;-56
2022/11/17 14:03:39;;;;;;;;;0.50;0.00;;;;;;;;4711754;30;45439;-56
2022/11/17 14:06:06;;;;;;;;;1.00;0.25;;;;;;;;4713357;30;45337;-55
2022/11/17 14:08:32;;;;;;;;;0.00;0.00;;;;;;;;4707633;30;45423;-55
2022/11/17 14:11:05;;;;;;;;;0.00;0.00;;;;;;;;4713948;30;45335;-57
2022/11/17 14:13:35;;;;;;;;;0.00;0.00;;;;;;;;4712773;30;45485;-56
2022/11/17 14:16:01;;;;;;;;;1.50;0.25;;;;;;;;4713436;30;45324;-57
2022/11/17 14:18:35;;;;;;;;;1.25;1.25;;;;;;;;4712913;30;45447;-57
2022/11/17 14:21:21;;;;;;;;;1.00;1.00;;;;;;;;4707771;30;45398;-55
2022/11/17 14:23:46;;;;;;;;;1.00;1.00;;;;;;;;4711174;30;45419;-57
2022/11/17 14:26:18;;;;;;;;;1.00;0.00;;;;;;;;4709422;30;45635;-57
2022/11/17 14:28:43;;;;;;;;;1.00;0.00;;;;;;;;4702428;30;46306;-57
2022/11/17 14:31:10;;;;;;;;;0.00;0.00;;;;;;;;4714628;30;45343;-56
2022/11/17 14:33:35;;;;;;;;;0.75;0.75;;;;;;;;4708520;30;45441;-56
2022/11/17 14:36:00;;;;;;;;;0.75;0.50;;;;;;;;4715427;30;45399;-56
2022/11/17 14:38:25;;;;;;;;;37.33;30.33;;;;;;;;4708392;30;46294;-57
2022/11/17 14:40:52;;;;;;;;;1.00;1.00;;;;;;;;4711754;30;45366;-56
2022/11/17 14:43:17;;;;;;;;;1.00;1.00;;;;;;;;4710840;30;45233;-56
2022/11/17 14:45:43;;;;;;;;;0.75;0.00;;;;;;;;4691685;30;45453;-56
2022/11/17 14:48:09;;;;;;;;;3.00;1.00;;;;;;;;4712680;30;46135;-56
2022/11/17 14:50:34;;;;;;;;;1.00;1.00;;;;;;;;4705858;30;45305;-57
2022/11/17 14:52:59;;;;;;;;;0.50;0.50;;;;;;;;4702984;30;45298;-57
2022/11/17 14:55:25;;;;;;;;;0.67;0.67;;;;;;;;4714700;30;45270;-57
2022/11/17 14:57:50;;;;;;;;;0.75;0.75;;;;;;;;4700625;30;46892;-56
2022/11/17 15:00:16;;;;;;;;;3.00;1.33;;;;;;;;4713416;30;45411;-53
2022/11/17 15:02:41;;;;;;;;;1.67;1.33;;;;;;;;4711323;30;45793;-56
2022/11/17 15:05:07;;;;;;;;;0.00;0.00;;;;;;;;4713643;30;45342;-55
2022/11/17 15:07:32;;;;;;;;;0.33;0.33;;;;;;;;4703719;30;45383;-56
2022/11/17 15:09:58;;;;;;;;;0.00;0.00;;;;;;;;4712369;30;45392;-56
2022/11/17 15:12:23;;;;;;;;;1.67;1.33;;;;;;;;4715849;30;45349;-55
2022/11/17 15:14:48;;;;;;;;;0.00;0.00;;;;;;;;4709067;30;45484;-57
2022/11/17 15:17:14;;;;;;;;;0.00;0.00;;;;;;;;4705630;30;46125;-57
2022/11/17 15:19:39;;;;;;;;;3.33;0.67;;;;;;;;4711555;30;45349;-56
2022/11/17 15:22:04;;;;;;;;;1.00;0.50;;;;;;;;4713573;30;45519;-57
2022/11/17 15:24:30;;;;;;;;;2.00;0.67;;;;;;;;4702251;30;45418;-56
2022/11/17 15:26:55;;;;;;;;;1.50;0.00;;;;;;;;4718074;30;45446;-56
2022/11/17 15:29:20;;;;;;;;;0.67;0.67;;;;;;;;4708621;30;45346;-56
2022/11/17 15:31:45;;;;;;;;;1.67;0.33;;;;;;;;4709458;30;45255;-55
2022/11/17 15:34:11;;;;;;;;;0.67;0.67;;;;;;;;4717976;30;45391;-56
2022/11/17 15:36:36;;;;;;;;;1.00;0.00;;;;;;;;4715918;30;46296;-56
2022/11/17 15:39:02;;;;;;;;;0.00;0.00;;;;;;;;4719568;30;46865;-57
2022/11/17 15:41:27;;;;;;;;;1.75;0.50;;;;;;;;4716540;30;45472;-57
2022/11/17 15:43:53;;;;;;;;;0.00;0.00;;;;;;;;4720080;30;45466;-56
2022/11/17 15:46:18;;;;;;;;;0.33;0.33;;;;;;;;4716618;30;46085;-57
2022/11/17 15:48:44;;;;;;;;;1.00;1.00;;;;;;;;4720841;30;45807;-55
2022/11/17 15:51:13;;;;;;;;;1.00;1.00;;;;;;;;4707611;30;45351;-57
2022/11/17 15:53:39;;;;;;;;;0.00;0.00;;;;;;;;4712088;30;45905;-57
2022/11/17 15:56:06;;;;;;;;;0.00;0.00;;;;;;;;4718038;30;46015;-56
2022/11/17 15:58:31;;;;;;;;;0.00;0.00;;;;;;;;4720916;30;45486;-56
2022/11/17 16:01:06;;;;;;;;;0.00;0.00;;;;;;;;4720980;30;45488;-56
2022/11/17 16:03:32;;;;;;;;;0.00;0.00;;;;;;;;4695022;30;45599;-57
2022/11/17 16:05:57;;;;;;;;;1.00;1.00;;;;;;;;4696592;30;46312;-58
2022/11/17 16:08:22;;;;;;;;;1.00;1.00;;;;;;;;4694149;30;45391;-58
2022/11/17 16:10:48;;;;;;;;;3.00;1.67;;;;;;;;4702203;30;45946;-59
2022/11/17 16:13:13;;;;;;;;;3.67;2.00;;;;;;;;4698607;30;45646;-58
2022/11/17 16:15:39;;;;;;;;;2.00;2.00;;;;;;;;4698227;30;47375;-58
2022/11/17 16:18:04;;;;;;;;;2.00;1.00;;;;;;;;4691466;30;45521;-55
2022/11/17 16:20:29;;;;;;;;;1.33;1.33;;;;;;;;4706010;30;45278;-57
2022/11/17 16:22:55;;;;;;;;;3.67;2.00;;;;;;;;4703737;30;45259;-56
2022/11/17 16:25:21;;;;;;;;;3.00;2.00;;;;;;;;4712382;30;45653;-55
2022/11/17 16:27:46;;;;;;;;;3.00;2.00;;;;;;;;4714452;30;45296;-56
2022/11/17 16:30:11;;;;;;;;;3.00;2.00;;;;;;;;4702470;30;45725;-58
2022/11/17 16:32:37;;;;;;;;;2.00;2.00;;;;;;;;4707364;30;45479;-57
2022/11/17 16:35:02;;;;;;;;;3.33;2.00;;;;;;;;4716949;30;45344;-59
2022/11/17 16:37:27;;;;;;;;;2.00;2.00;;;;;;;;4710126;30;45597;-58
2022/11/17 16:39:53;;;;;;;;;5.33;2.00;;;;;;;;4712429;30;45447;-57
2022/11/17 16:42:19;;;;;;;;;4.67;3.00;;;;;;;;4713045;30;45439;-58
2022/11/17 16:44:44;;;;;;;;;4.00;4.00;;;;;;;;4713828;30;46332;-57
2022/11/17 16:47:09;;;;;;;;;2.00;2.00;;;;;;;;4714705;30;45683;-58
2022/11/17 16:49:34;;;;;;;;;5.00;5.00;;;;;;;;4715558;30;45655;-57
2022/11/17 16:51:59;;;;;;;;;2.67;2.67;;;;;;;;4712209;30;45393;-58
2022/11/17 16:54:25;;;;;;;;;3.67;3.67;;;;;;;;4716595;30;46424;-58
2022/11/17 16:56:50;;;;;;;;;3.67;3.33;;;;;;;;4707363;30;45856;-58
2022/11/17 16:59:15;;;;;;;;;3.00;3.00;;;;;;;;4719396;30;45451;-58
2022/11/17 17:01:40;;;;;;;;;1.00;1.00;;;;;;;;4707972;30;45434;-58
2022/11/17 17:04:07;;;;;;;;;3.00;3.00;;;;;;;;4714601;30;45594;-58
2022/11/17 17:06:33;;;;;;;;;5.00;4.00;;;;;;;;4714953;30;45322;-59
2022/11/17 17:08:59;;;;;;;;;3.33;3.00;;;;;;;;4719232;30;45737;-58
2022/11/17 17:11:26;;;;;;;;;3.00;3.00;;;;;;;;4717348;30;45408;-58
2022/11/17 17:13:51;;;;;;;;;8.00;4.33;;;;;;;;4716171;30;47100;-58
2022/11/17 17:16:17;;;;;;;;;5.33;4.00;;;;;;;;4717463;30;45261;-57
2022/11/17 17:18:43;;;;;;;;;3.00;3.00;;;;;;;;4716232;30;45351;-58
2022/11/17 17:21:16;;;;;;;;;6.33;3.33;;;;;;;;4721963;30;45419;-58
2022/11/17 17:23:41;;;;;;;;;3.33;3.00;;;;;;;;4719358;30;45698;-58
2022/11/17 17:26:09;;;;;;;;;2.67;2.67;;;;;;;;4712152;30;45522;-58
2022/11/17 17:28:35;;;;;;;;;4.67;3.67;;;;;;;;4713496;30;45505;-57
2022/11/17 17:31:01;;;;;;;;;2.00;2.00;;;;;;;;4712425;30;45605;-58
2022/11/17 17:33:30;;;;;;;;;7.67;5.00;;;;;;;;4718683;30;46266;-58
2022/11/17 17:36:00;;;;;;;;;4.67;4.00;;;;;;;;4718937;30;45432;-58
2022/11/17 17:38:26;;;;;;;;;5.00;4.33;;;;;;;;4708753;30;45380;-58
2022/11/17 17:40:51;;;;;;;;;4.00;4.00;;;;;;;;4714332;30;45550;-58
2022/11/17 17:43:17;;;;;;;;;5.67;4.00;;;;;;;;4711564;30;47376;-57
2022/11/17 17:45:42;;;;;;;;;5.67;4.33;;;;;;;;4715650;30;45612;-57
2022/11/17 17:48:07;;;;;;;;;7.33;5.67;;;;;;;;4707633;30;45440;-57
2022/11/17 17:50:32;;;;;;;;;4.00;4.00;;;;;;;;4711590;30;45320;-57
2022/11/17 17:52:57;;;;;;;;;5.00;3.33;;;;;;;;4712347;30;45435;-58
2022/11/17 17:55:22;;;;;;;;;6.33;4.00;;;;;;;;4707751;30;45325;-58
2022/11/17 17:57:48;;;;;;;;;4.00;4.00;;;;;;;;4707848;30;45297;-56
2022/11/17 18:00:13;;;;;;;;;5.00;4.33;;;;;;;;4715524;30;45300;-58
2022/11/17 18:02:38;;;;;;;;;3.00;3.00;;;;;;;;4716648;30;45959;-57
2022/11/17 18:05:04;;;;;;;;;4.00;4.00;;;;;;;;4716326;30;45349;-58
2022/11/17 18:07:29;;;;;;;;;7.00;5.00;;;;;;;;4704017;30;46069;-57
2022/11/17 18:09:54;;;;;;;;;4.33;4.00;;;;;;;;4705743;30;45674;-57
2022/11/17 18:12:19;;;;;;;;;6.67;5.33;;;;;;;;4713073;30;45416;-58
2022/11/17 18:14:45;;;;;;;;;3.67;3.67;;;;;;;;4716849;30;45776;-58
2022/11/17 18:17:10;;;;;;;;;6.00;4.00;;;;;;;;4715135;30;45359;-58
2022/11/17 18:19:35;;;;;;;;;7.67;6.00;;;;;;;;4707669;30;45270;-58
2022/11/17 18:22:00;;;;;;;;;5.67;5.33;;;;;;;;4714673;30;46320;-59
2022/11/17 18:24:25;;;;;;;;;5.00;5.00;;;;;;;;4714293;30;45363;-59
2022/11/17 18:26:51;;;;;;;;;8.67;8.67;;;;;;;;4713820;30;45645;-57
2022/11/17 18:29:19;;;;;;;;;8.33;7.00;;;;;;;;4715582;30;45453;-58
2022/11/17 18:31:46;;;;;;;;;8.00;8.00;;;;;;;;4712814;30;46453;-58
2022/11/17 18:34:19;;;;;;;;;9.00;8.00;;;;;;;;4716240;30;45436;-57
2022/11/17 18:36:45;;;;;;;;;13.00;8.00;;;;;;;;4715051;30;45508;-58
2022/11/17 18:39:10;;;;;;;;;8.00;8.00;;;;;;;;4713109;30;45607;-57
2022/11/17 18:41:35;;;;;;;;;11.00;8.00;;;;;;;;4714567;30;45381;-57
2022/11/17 18:44:01;;;;;;;;;9.00;8.00;;;;;;;;4707915;30;45391;-58
2022/11/17 18:46:27;;;;;;;;;10.33;10.00;;;;;;;;4717285;30;45658;-58
2022/11/17 18:48:53;;;;;;;;;10.67;9.67;;;;;;;;4715356;30;45677;-58
2022/11/17 18:51:20;;;;;;;;;12.67;9.67;;;;;;;;4716551;30;46274;-57
2022/11/17 18:53:45;;;;;;;;;10.67;10.00;;;;;;;;4705106;30;45836;-58
2022/11/17 18:56:12;;;;;;;;;13.67;13.67;;;;;;;;4719515;30;45499;-55
2022/11/17 18:58:37;;;;;;;;;15.00;9.33;;;;;;;;4718397;30;45332;-56
2022/11/17 19:01:09;;;;;;;;;8.00;7.33;;;;;;;;4722207;30;45397;-56
2022/11/17 19:03:34;;;;;;;;;8.00;8.00;;;;;;;;4720767;30;45380;-55
2022/11/17 19:06:00;;;;;;;;;9.33;8.33;;;;;;;;4689506;30;45389;-56
2022/11/17 19:08:29;;;;;;;;;7.00;6.33;;;;;;;;4718925;30;45308;-56
2022/11/17 19:10:55;;;;;;;;;8.33;5.33;;;;;;;;4720801;30;46086;-56
2022/11/17 19:13:20;;;;;;;;;6.00;4.67;;;;;;;;4710634;30;46133;-57
2022/11/17 19:15:46;;;;;;;;;8.00;7.00;;;;;;;;4721226;30;45403;-58
2022/11/17 19:18:11;;;;;;;;;6.00;4.00;;;;;;;;4720659;30;45357;-58
2022/11/17 19:20:36;;;;;;;;;5.67;4.33;;;;;;;;4709631;30;45377;-56
2022/11/17 19:23:01;;;;;;;;;10.00;5.00;;;;;;;;4712507;30;46725;-56
2022/11/17 19:25:27;;;;;;;;;11.33;8.00;;;;;;;;4707605;30;46053;-56
2022/11/17 19:27:52;;;;;;;;;12.00;9.00;;;;;;;;4719814;30;45710;-56
2022/11/17 19:30:17;;;;;;;;;6.00;6.00;;;;;;;;4720128;30;45998;-55
2022/11/17 19:32:43;;;;;;;;;7.33;7.00;;;;;;;;4699927;30;45524;-56
2022/11/17 19:35:08;;;;;;;;;8.33;6.67;;;;;;;;4720894;30;45427;-57
2022/11/17 19:37:33;;;;;;;;;9.67;7.00;;;;;;;;4721643;30;45348;-57
2022/11/17 19:39:58;;;;;;;;;6.33;6.33;;;;;;;;4718734;30;45400;-55
2022/11/17 19:42:23;;;;;;;;;8.00;6.00;;;;;;;;4721435;30;45282;-57
2022/11/17 19:44:50;;;;;;;;;6.00;6.00;;;;;;;;4715257;30;45276;-56
2022/11/17 19:47:15;;;;;;;;;5.67;4.67;;;;;;;;4711871;30;45500;-57
2022/11/17 19:49:40;;;;;;;;;7.00;5.67;;;;;;;;4705639;30;45450;-57
2022/11/17 19:52:06;;;;;;;;;10.67;5.00;;;;;;;;4714200;30;45608;-57
2022/11/17 19:54:32;;;;;;;;;6.00;6.00;;;;;;;;4722339;30;45839;-57
2022/11/17 19:56:57;;;;;;;;;4.67;4.67;;;;;;;;4721097;30;45451;-56
2022/11/17 19:59:22;;;;;;;;;5.00;4.67;;;;;;;;4709646;30;45452;-57
2022/11/17 20:01:47;;;;;;;;;4.00;4.00;;;;;;;;4704075;30;45313;-56
2022/11/17 20:04:12;;;;;;;;;7.00;5.67;;;;;;;;4714627;30;46685;-57
2022/11/17 20:06:38;;;;;;;;;7.67;5.00;;;;;;;;4719793;30;45341;-57
2022/11/17 20:09:07;;;;;;;;;3.33;2.67;;;;;;;;4710524;30;46845;-57
2022/11/17 20:11:34;;;;;;;;;5.00;5.00;;;;;;;;4707237;30;45301;-58
2022/11/17 20:13:59;;;;;;;;;8.67;5.00;;;;;;;;4713214;30;45438;-57
2022/11/17 20:16:25;;;;;;;;;5.00;5.00;;;;;;;;4707499;30;46370;-57
2022/11/17 20:18:55;;;;;;;;;6.00;5.33;;;;;;;;4706643;30;46174;-57